createdAt,value
2023-04-22T00:01:46.531Z,100.00
2023-04-22T00:04:15.011Z,100.00
2023-04-22T00:06:43.250Z,99.64
2023-04-22T00:09:11.692Z,98.65
2023-04-22T00:11:39.448Z,99.61
2023-04-22T00:14:07.258Z,99.93
2023-04-22T00:16:35.101Z,98.94
2023-04-22T00:19:07.007Z,97.24
2023-04-22T00:21:34.656Z,97.54
2023-04-22T00:24:02.950Z,97.19
2023-04-22T00:26:30.609Z,95.74
2023-04-22T00:28:58.399Z,94.54
2023-04-22T00:31:26.159Z,97.09
2023-04-22T00:33:54.113Z,95.60
2023-04-22T00:36:23.615Z,96.66
2023-04-22T00:38:51.804Z,96.99
2023-04-22T00:41:20.053Z,96.90
2023-04-22T00:43:47.694Z,95.16
2023-04-22T00:46:17.223Z,95.05
2023-04-22T00:48:47.114Z,96.59
2023-04-22T00:51:14.771Z,99.10
2023-04-22T00:53:43.799Z,100.00
2023-04-22T00:56:12.600Z,100.00
2023-04-22T00:58:40.468Z,100.00
2023-04-22T01:01:08.284Z,100.00
2023-04-22T01:03:39.902Z,100.00
2023-04-22T01:06:08.328Z,100.00
2023-04-22T01:08:36.072Z,100.00
2023-04-22T01:11:05.195Z,100.00
2023-04-22T01:13:32.946Z,100.00
2023-04-22T01:16:02.570Z,100.00
2023-04-22T01:18:30.646Z,100.00
2023-04-22T01:20:58.312Z,100.00
2023-04-22T01:23:27.649Z,100.00
2023-04-22T01:25:55.882Z,100.00
2023-04-22T01:28:24.390Z,100.00
2023-04-22T01:30:52.304Z,100.00
2023-04-22T01:33:20.365Z,100.00
2023-04-22T01:35:48.279Z,100.00
2023-04-22T01:38:15.958Z,100.00
2023-04-22T01:40:45.027Z,100.00
2023-04-22T01:43:12.779Z,100.00
2023-04-22T01:45:40.844Z,100.00
2023-04-22T01:48:08.653Z,100.00
2023-04-22T01:50:38.199Z,100.00
2023-04-22T01:53:08.210Z,100.00
2023-04-22T01:55:37.192Z,100.00
2023-04-22T01:58:06.464Z,100.00
2023-04-22T02:00:34.394Z,100.00
2023-04-22T02:03:02.266Z,100.00
2023-04-22T02:05:30.190Z,100.00
2023-04-22T02:07:58.028Z,100.00
2023-04-22T02:10:25.756Z,100.00
2023-04-22T02:12:53.488Z,100.00
2023-04-22T02:15:22.799Z,100.00
2023-04-22T02:17:52.986Z,100.00
2023-04-22T02:20:20.675Z,100.00
2023-04-22T02:22:48.492Z,100.00
2023-04-22T02:25:16.680Z,100.00
2023-04-22T02:27:44.462Z,100.00
2023-04-22T02:30:13.234Z,100.00
2023-04-22T02:32:42.265Z,100.00
2023-04-22T02:35:12.225Z,100.00
2023-04-22T02:37:40.344Z,100.00
2023-04-22T02:40:09.623Z,100.00
2023-04-22T02:42:37.315Z,100.00
2023-04-22T02:45:05.806Z,100.00
2023-04-22T02:47:33.516Z,100.00
2023-04-22T02:50:02.525Z,100.00
2023-04-22T02:52:30.347Z,100.00
2023-04-22T02:54:58.116Z,100.00
2023-04-22T02:57:26.026Z,100.00
2023-04-22T02:59:54.135Z,100.00
2023-04-22T03:02:23.020Z,100.00
2023-04-22T03:05:04.074Z,100.00
2023-04-22T03:07:32.215Z,100.00
2023-04-22T03:10:00.637Z,100.00
2023-04-22T03:12:28.429Z,100.00
2023-04-22T03:14:56.314Z,100.00
2023-04-22T03:17:27.971Z,100.00
2023-04-22T03:19:56.271Z,100.00
2023-04-22T03:22:25.410Z,100.00
2023-04-22T03:24:56.722Z,100.00
2023-04-22T03:27:24.422Z,100.00
2023-04-22T03:29:52.092Z,100.00
2023-04-22T03:32:19.886Z,100.00
2023-04-22T03:34:51.386Z,100.00
2023-04-22T03:37:20.216Z,100.00
2023-04-22T03:39:49.338Z,100.00
2023-04-22T03:42:20.547Z,100.00
2023-04-22T03:44:48.292Z,100.00
2023-04-22T03:47:18.183Z,100.00
2023-04-22T03:49:52.461Z,100.00
2023-04-22T03:52:20.652Z,100.00
2023-04-22T03:54:58.020Z,100.00
2023-04-22T03:57:25.820Z,100.00
2023-04-22T03:59:53.632Z,100.00
2023-04-22T04:02:21.493Z,100.00
2023-04-22T04:04:49.551Z,100.00
2023-04-22T04:07:17.504Z,100.00
2023-04-22T04:09:45.213Z,100.00
2023-04-22T04:12:15.351Z,100.00
2023-04-22T04:14:45.465Z,100.00
2023-04-22T04:17:17.520Z,100.00
2023-04-22T04:19:45.506Z,100.00
2023-04-22T04:22:13.485Z,100.00
2023-04-22T04:24:50.572Z,100.00
2023-04-22T04:27:24.686Z,100.00
2023-04-22T04:29:55.941Z,100.00
2023-04-22T04:32:53.388Z,100.00
2023-04-22T04:35:22.148Z,100.00
2023-04-22T04:37:55.313Z,100.00
2023-04-22T04:40:23.896Z,100.00
2023-04-22T04:43:04.349Z,100.00
2023-04-22T04:45:37.866Z,100.00
2023-04-22T04:48:07.014Z,100.00
2023-04-22T04:50:37.624Z,100.00
2023-04-22T04:53:05.382Z,100.00
2023-04-22T04:55:38.327Z,100.00
2023-04-22T04:58:13.378Z,100.00
2023-04-22T05:00:41.162Z,100.00
2023-04-22T05:03:09.952Z,100.00
2023-04-22T05:05:37.837Z,100.00
2023-04-22T05:08:05.779Z,100.00
2023-04-22T05:10:36.392Z,100.00
2023-04-22T05:13:05.199Z,100.00
2023-04-22T05:15:35.475Z,100.00
2023-04-22T05:18:03.911Z,100.00
2023-04-22T05:20:35.339Z,100.00
2023-04-22T05:23:04.473Z,100.00
2023-04-22T05:25:32.477Z,100.00
2023-04-22T05:28:06.090Z,100.00
2023-04-22T05:30:42.806Z,100.00
2023-04-22T05:33:10.906Z,100.00
2023-04-22T05:35:38.846Z,100.00
2023-04-22T05:38:07.984Z,100.00
2023-04-22T05:40:39.340Z,100.00
2023-04-22T05:43:08.140Z,100.00
2023-04-22T05:45:37.666Z,100.00
2023-04-22T05:48:08.975Z,100.00
2023-04-22T05:50:43.369Z,100.00
2023-04-22T05:53:11.090Z,100.00
2023-04-22T05:55:38.843Z,100.00
2023-04-22T05:58:09.057Z,100.00
2023-04-22T06:00:53.933Z,100.00
2023-04-22T06:03:47.091Z,100.00
2023-04-22T06:06:15.070Z,100.00
2023-04-22T06:08:42.776Z,100.00
2023-04-22T06:11:11.855Z,100.00
2023-04-22T06:13:39.766Z,100.00
2023-04-22T06:18:38.289Z,100.00
2023-04-22T06:21:11.118Z,100.00
2023-04-22T06:23:38.861Z,100.00
2023-04-22T06:26:06.648Z,100.00
2023-04-22T06:28:36.090Z,100.00
2023-04-22T06:31:08.933Z,100.00
2023-04-22T06:33:37.102Z,100.00
2023-04-22T06:36:05.791Z,100.00
2023-04-22T06:38:36.123Z,100.00
2023-04-22T06:41:19.214Z,100.00
2023-04-22T06:43:50.652Z,100.00
2023-04-22T06:46:43.966Z,100.00
2023-04-22T06:49:30.389Z,100.00
2023-04-22T06:51:58.031Z,100.00
2023-04-22T06:54:27.442Z,100.00
2023-04-22T06:56:55.940Z,100.00
2023-04-22T06:59:24.473Z,100.00
2023-04-22T07:01:52.895Z,100.00
2023-04-22T07:04:20.820Z,100.00
2023-04-22T07:06:48.607Z,100.00
2023-04-22T07:09:16.658Z,100.00
2023-04-22T07:11:46.309Z,99.36
2023-04-22T07:14:18.760Z,94.26
2023-04-22T07:16:47.545Z,92.20
2023-04-22T07:19:15.368Z,94.26
2023-04-22T07:21:43.037Z,91.78
2023-04-22T07:24:12.100Z,87.59
2023-04-22T07:26:40.154Z,88.74
2023-04-22T07:29:09.199Z,88.51
2023-04-22T07:31:37.272Z,87.06
2023-04-22T07:34:05.107Z,88.40
2023-04-22T07:36:33.153Z,89.90
2023-04-22T07:39:00.816Z,90.19
2023-04-22T07:41:28.519Z,91.56
2023-04-22T07:43:56.314Z,90.58
2023-04-22T07:46:25.368Z,87.30
2023-04-22T07:48:53.176Z,82.66
2023-04-22T07:51:20.808Z,70.68
2023-04-22T07:53:48.432Z,74.26
2023-04-22T07:56:16.460Z,72.06
2023-04-22T07:58:44.179Z,73.77
2023-04-22T08:01:11.835Z,71.55
2023-04-22T08:03:41.074Z,71.09
2023-04-22T08:06:08.989Z,72.50
2023-04-22T08:08:36.696Z,70.59
2023-04-22T08:11:04.819Z,69.09
2023-04-22T08:13:32.466Z,67.90
2023-04-22T08:16:02.682Z,71.01
2023-04-22T08:18:30.711Z,67.82
2023-04-22T08:21:00.171Z,70.76
2023-04-22T08:23:27.829Z,76.03
2023-04-22T08:25:55.508Z,71.88
2023-04-22T08:28:23.356Z,73.63
2023-04-22T08:30:51.007Z,68.55
2023-04-22T08:33:18.650Z,65.77
2023-04-22T08:35:46.361Z,68.61
2023-04-22T08:38:15.620Z,68.16
2023-04-22T08:40:43.651Z,69.25
2023-04-22T08:43:11.293Z,67.34
2023-04-22T08:45:40.615Z,67.74
2023-04-22T08:48:09.538Z,64.40
2023-04-22T08:50:38.582Z,65.32
2023-04-22T08:53:06.500Z,63.58
2023-04-22T08:55:36.907Z,62.61
2023-04-22T08:58:06.268Z,61.89
2023-04-22T09:00:34.452Z,62.70
2023-04-22T09:03:05.914Z,63.24
2023-04-22T09:05:34.917Z,63.23
2023-04-22T09:08:03.994Z,63.58
2023-04-22T09:10:34.015Z,62.78
2023-04-22T09:13:05.442Z,61.41
2023-04-22T09:15:33.389Z,63.15
2023-04-22T09:18:03.018Z,61.58
2023-04-22T09:20:31.239Z,59.33
2023-04-22T09:23:04.388Z,58.93
2023-04-22T09:25:34.601Z,58.42
2023-04-22T09:28:03.742Z,57.59
2023-04-22T09:30:33.176Z,55.84
2023-04-22T09:33:02.507Z,56.35
2023-04-22T09:35:32.202Z,56.20
2023-04-22T09:38:01.646Z,56.97
2023-04-22T09:40:29.811Z,54.55
2023-04-22T09:42:59.624Z,54.01
2023-04-22T09:45:33.078Z,55.12
2023-04-22T09:48:04.157Z,55.56
2023-04-22T09:50:31.995Z,55.18
2023-04-22T09:53:01.902Z,55.00
2023-04-22T09:55:31.507Z,53.84
2023-04-22T09:57:59.572Z,53.10
2023-04-22T10:00:32.190Z,54.17
2023-04-22T10:03:00.209Z,52.65
2023-04-22T10:05:29.519Z,53.60
2023-04-22T10:07:57.230Z,53.49
2023-04-22T10:10:25.346Z,52.82
2023-04-22T10:12:54.022Z,51.67
2023-04-22T10:15:21.842Z,48.70
2023-04-22T10:17:54.204Z,49.34
2023-04-22T10:20:23.548Z,49.52
2023-04-22T10:22:53.745Z,48.88
2023-04-22T10:25:25.660Z,46.71
2023-04-22T10:28:03.599Z,44.93
2023-04-22T10:30:32.998Z,46.69
2023-04-22T10:33:35.190Z,45.59
2023-04-22T10:36:16.483Z,44.61
2023-04-22T10:39:17.756Z,43.59
2023-04-22T10:41:52.147Z,45.28
2023-04-22T10:44:21.430Z,44.43
2023-04-22T10:46:59.828Z,41.39
2023-04-22T10:49:31.317Z,42.00
2023-04-22T10:52:01.411Z,42.14
2023-04-22T10:54:58.905Z,43.32
2023-04-22T10:57:37.770Z,43.65
2023-04-22T11:00:25.534Z,42.34
2023-04-22T11:02:56.125Z,43.45
2023-04-22T11:05:27.050Z,42.58
2023-04-22T11:08:02.430Z,42.72
2023-04-22T11:10:35.799Z,43.36
2023-04-22T11:13:03.967Z,42.51
2023-04-22T11:15:32.177Z,42.54
2023-04-22T11:18:00.144Z,44.36
2023-04-22T11:20:29.556Z,43.67
2023-04-22T11:22:58.947Z,43.87
2023-04-22T11:25:28.220Z,44.22
2023-04-22T11:27:56.116Z,41.84
2023-04-22T11:30:25.190Z,42.63
2023-04-22T11:32:55.804Z,43.30
2023-04-22T11:35:25.279Z,41.91
2023-04-22T11:37:55.887Z,42.71
2023-04-22T11:40:31.183Z,41.61
2023-04-22T11:43:00.617Z,40.70
2023-04-22T11:45:30.207Z,40.67
2023-04-22T11:47:58.764Z,40.17
2023-04-22T11:50:28.642Z,40.29
2023-04-22T11:52:57.988Z,41.72
2023-04-22T11:55:30.504Z,39.95
2023-04-22T11:57:59.794Z,39.63
2023-04-22T12:00:32.984Z,39.47
2023-04-22T12:03:01.953Z,40.38
2023-04-22T12:05:40.994Z,38.42
2023-04-22T12:08:10.692Z,39.07
2023-04-22T12:10:45.189Z,39.44
2023-04-22T12:13:19.969Z,36.97
2023-04-22T12:15:48.052Z,38.47
2023-04-22T12:18:15.837Z,39.83
2023-04-22T12:20:43.768Z,38.94
2023-04-22T12:23:15.762Z,37.95
2023-04-22T12:25:45.136Z,37.95
2023-04-22T12:28:14.227Z,39.22
2023-04-22T12:30:42.275Z,38.37
2023-04-22T12:33:10.235Z,37.47
2023-04-22T12:35:37.875Z,37.16
2023-04-22T12:38:05.538Z,38.10
2023-04-22T12:40:33.293Z,37.78
2023-04-22T12:43:05.832Z,38.95
2023-04-22T12:45:33.595Z,38.97
2023-04-22T12:48:01.501Z,39.29
2023-04-22T12:50:29.166Z,39.96
2023-04-22T12:52:56.806Z,40.94
2023-04-22T12:55:24.716Z,41.07
2023-04-22T12:57:52.798Z,41.18
2023-04-22T13:00:22.757Z,41.39
2023-04-22T13:02:50.608Z,41.10
2023-04-22T13:05:19.615Z,40.23
2023-04-22T13:07:59.614Z,40.19
2023-04-22T13:10:34.215Z,40.36
2023-04-22T13:13:16.852Z,40.48
2023-04-22T13:15:47.950Z,40.23
2023-04-22T13:18:17.010Z,40.56
2023-04-22T13:20:44.924Z,40.74
2023-04-22T13:23:13.269Z,41.29
2023-04-22T13:25:41.142Z,41.64
2023-04-22T13:28:10.349Z,42.57
2023-04-22T13:30:37.933Z,42.70
2023-04-22T13:33:07.247Z,43.09
2023-04-22T13:35:34.903Z,42.78
2023-04-22T13:38:02.744Z,42.79
2023-04-22T13:40:30.456Z,44.05
2023-04-22T13:42:58.307Z,44.13
2023-04-22T13:45:26.138Z,43.67
2023-04-22T13:47:54.735Z,44.32
2023-04-22T13:50:24.398Z,43.44
2023-04-22T13:52:52.212Z,44.17
2023-04-22T13:55:20.425Z,43.95
2023-04-22T13:57:48.141Z,44.96
2023-04-22T14:00:16.064Z,44.42
2023-04-22T14:02:43.797Z,44.93
2023-04-22T14:05:11.635Z,45.24
2023-04-22T14:07:40.753Z,45.05
2023-04-22T14:10:12.059Z,44.94
2023-04-22T14:12:39.989Z,44.96
2023-04-22T14:15:10.769Z,46.11
2023-04-22T14:17:38.760Z,45.91
2023-04-22T14:20:08.279Z,44.52
2023-04-22T14:22:35.952Z,43.55
2023-04-22T14:25:05.469Z,43.28
2023-04-22T14:27:33.281Z,42.29
2023-04-22T14:30:01.205Z,42.81
2023-04-22T14:32:29.324Z,42.96
2023-04-22T14:34:57.053Z,42.42
2023-04-22T14:37:24.801Z,42.31
2023-04-22T14:39:52.701Z,42.38
2023-04-22T14:42:21.789Z,42.52
2023-04-22T14:44:49.442Z,43.21
2023-04-22T14:47:17.076Z,42.92
2023-04-22T14:49:44.788Z,43.04
2023-04-22T14:52:12.639Z,41.76
2023-04-22T14:54:40.304Z,43.19
2023-04-22T14:57:08.080Z,42.43
2023-04-22T14:59:37.071Z,42.68
2023-04-22T15:02:05.238Z,43.02
2023-04-22T15:04:33.058Z,42.38
2023-04-22T15:07:01.633Z,43.72
2023-04-22T15:09:29.411Z,42.76
2023-04-22T15:11:59.478Z,42.29
2023-04-22T15:14:27.224Z,44.33
2023-04-22T15:16:56.510Z,42.61
2023-04-22T15:19:25.226Z,42.51
2023-04-22T15:21:52.884Z,43.35
2023-04-22T15:24:21.349Z,42.62
2023-04-22T15:26:49.113Z,40.31
2023-04-22T15:29:16.761Z,40.56
2023-04-22T15:31:45.594Z,41.57
2023-04-22T15:34:14.690Z,42.28
2023-04-22T15:36:42.527Z,41.69
2023-04-22T15:39:10.639Z,40.52
2023-04-22T15:41:38.564Z,42.40
2023-04-22T15:44:08.548Z,42.06
2023-04-22T15:46:36.915Z,42.81
2023-04-22T15:49:05.184Z,40.76
2023-04-22T15:51:34.253Z,43.41
2023-04-22T15:54:03.752Z,42.55
2023-04-22T15:56:32.936Z,41.66
2023-04-22T15:59:00.725Z,41.09
2023-04-22T16:01:28.408Z,42.04
2023-04-22T16:03:56.407Z,40.51
2023-04-22T16:06:24.131Z,42.84
2023-04-22T16:08:53.380Z,41.48
2023-04-22T16:11:21.070Z,42.40
2023-04-22T16:13:48.709Z,41.74
2023-04-22T16:16:17.509Z,40.32
2023-04-22T16:18:45.413Z,45.60
2023-04-22T16:21:13.259Z,41.65
2023-04-22T16:23:41.015Z,44.20
2023-04-22T16:26:10.543Z,42.36
2023-04-22T16:28:38.219Z,47.72
2023-04-22T16:31:06.064Z,43.78
2023-04-22T16:33:34.153Z,47.24
2023-04-22T16:36:02.037Z,46.83
2023-04-22T16:38:29.707Z,48.91
2023-04-22T16:40:57.943Z,49.79
2023-04-22T16:43:27.052Z,50.18
2023-04-22T16:45:54.693Z,49.63
2023-04-22T16:48:22.623Z,52.08
2023-04-22T16:50:51.185Z,47.77
2023-04-22T16:53:18.878Z,47.30
2023-04-22T16:55:46.469Z,49.88
2023-04-22T16:58:14.094Z,49.65
2023-04-22T17:00:43.091Z,49.11
2023-04-22T17:03:11.859Z,49.72
2023-04-22T17:05:39.991Z,48.07
2023-04-22T17:08:08.192Z,50.55
2023-04-22T17:10:37.278Z,52.44
2023-04-22T17:13:04.890Z,54.62
2023-04-22T17:15:32.670Z,55.01
2023-04-22T17:18:02.442Z,56.49
2023-04-22T17:20:30.152Z,57.06
2023-04-22T17:22:58.399Z,58.20
2023-04-22T17:25:26.062Z,54.70
2023-04-22T17:27:53.718Z,58.87
2023-04-22T17:30:21.586Z,59.14
2023-04-22T17:32:49.275Z,59.76
2023-04-22T17:35:18.445Z,60.26
2023-04-22T17:37:46.314Z,61.90
2023-04-22T17:40:14.022Z,64.15
2023-04-22T17:45:13.065Z,60.19
2023-04-22T17:47:40.767Z,54.95
2023-04-22T17:50:09.666Z,50.81
2023-04-22T17:52:38.687Z,48.34
2023-04-22T17:55:07.454Z,48.85
2023-04-22T17:57:35.115Z,46.91
2023-04-22T18:00:02.807Z,46.87
2023-04-22T18:02:35.369Z,46.13
2023-04-22T18:05:03.173Z,46.60
2023-04-22T18:07:30.949Z,46.79
2023-04-22T18:10:00.003Z,47.67
2023-04-22T18:12:30.616Z,48.20
2023-04-22T18:14:58.782Z,47.87
2023-04-22T18:17:26.658Z,48.18
2023-04-22T18:20:02.753Z,49.02
2023-04-22T18:22:34.126Z,49.62
2023-04-22T18:25:03.206Z,50.46
2023-04-22T18:27:31.443Z,50.94
2023-04-22T18:29:59.136Z,51.13
2023-04-22T18:32:26.911Z,52.33
2023-04-22T18:34:54.678Z,53.01
2023-04-22T18:37:22.345Z,53.29
2023-04-22T18:39:49.978Z,54.66
2023-04-22T18:42:19.280Z,54.17
2023-04-22T18:44:46.908Z,54.34
2023-04-22T18:47:14.680Z,54.73
2023-04-22T18:49:42.330Z,55.94
2023-04-22T18:52:09.988Z,57.00
2023-04-22T18:54:37.674Z,58.17
2023-04-22T18:57:05.840Z,60.11
2023-04-22T18:59:34.855Z,62.04
2023-04-22T19:02:02.702Z,64.29
2023-04-22T19:04:30.530Z,64.09
2023-04-22T19:06:59.114Z,64.16
2023-04-22T19:09:26.855Z,63.39
2023-04-22T19:11:54.575Z,65.51
2023-04-22T19:14:22.306Z,64.81
2023-04-22T19:16:51.258Z,66.30
2023-04-22T19:19:18.981Z,69.87
2023-04-22T19:21:46.661Z,74.36
2023-04-22T19:24:14.571Z,78.73
2023-04-22T19:26:42.455Z,86.24
2023-04-22T19:29:10.687Z,89.43
2023-04-22T19:31:38.452Z,94.93
2023-04-22T19:34:07.565Z,94.49
2023-04-22T19:36:35.251Z,99.57
2023-04-22T19:39:03.037Z,100.00
2023-04-22T19:41:33.318Z,100.00
2023-04-22T19:44:01.004Z,100.00
2023-04-22T19:46:28.908Z,100.00
2023-04-22T19:48:57.802Z,100.00
2023-04-22T19:51:27.089Z,100.00
2023-04-22T19:53:55.853Z,100.00
2023-04-22T19:56:23.993Z,100.00
2023-04-22T19:58:52.985Z,100.00
2023-04-22T20:01:21.188Z,100.00
2023-04-22T20:03:49.900Z,100.00
2023-04-22T20:06:18.106Z,100.00
2023-04-22T20:08:47.988Z,100.00
2023-04-22T20:11:15.864Z,100.00
2023-04-22T20:13:45.699Z,100.00
2023-04-22T20:16:15.034Z,100.00
2023-04-22T20:18:42.987Z,100.00
2023-04-22T20:21:10.832Z,100.00
2023-04-22T20:23:40.988Z,100.00
2023-04-22T20:26:10.358Z,100.00
2023-04-22T20:28:45.829Z,100.00
2023-04-22T20:31:14.453Z,100.00
2023-04-22T20:33:42.644Z,100.00
2023-04-22T20:36:11.348Z,100.00
2023-04-22T20:38:39.350Z,100.00
2023-04-22T20:41:08.496Z,100.00
2023-04-22T20:43:37.630Z,100.00
2023-04-22T20:46:05.395Z,100.00
2023-04-22T20:48:33.148Z,100.00
2023-04-22T20:51:00.835Z,100.00
2023-04-22T20:53:28.639Z,100.00
2023-04-22T20:55:56.419Z,100.00
2023-04-22T20:58:24.345Z,100.00
2023-04-22T21:00:53.464Z,100.00
2023-04-22T21:03:23.548Z,100.00
2023-04-22T21:05:52.347Z,100.00
2023-04-22T21:08:22.848Z,100.00
2023-04-22T21:10:52.510Z,100.00
2023-04-22T21:13:21.008Z,100.00
2023-04-22T21:15:56.748Z,100.00
2023-04-22T21:18:26.409Z,100.00
2023-04-22T21:20:56.541Z,100.00
2023-04-22T21:23:25.484Z,100.00
2023-04-22T21:25:55.706Z,100.00
2023-04-22T21:28:23.989Z,100.00
2023-04-22T21:30:52.250Z,100.00
2023-04-22T21:33:21.292Z,100.00
2023-04-22T21:35:49.291Z,100.00
2023-04-22T21:38:17.135Z,100.00
2023-04-22T21:40:45.118Z,100.00
2023-04-22T21:43:12.938Z,100.00
2023-04-22T21:45:40.770Z,100.00
2023-04-22T21:48:08.853Z,100.00
2023-04-22T21:50:38.229Z,100.00
2023-04-22T21:53:06.522Z,100.00
2023-04-22T21:55:34.563Z,100.00
2023-04-22T21:58:02.320Z,100.00
2023-04-22T22:00:30.818Z,100.00
2023-04-22T22:02:58.730Z,100.00
2023-04-22T22:05:26.435Z,100.00
2023-04-22T22:07:56.874Z,100.00
2023-04-22T22:10:25.175Z,100.00
2023-04-22T22:12:52.926Z,100.00
2023-04-22T22:15:20.837Z,100.00
2023-04-22T22:17:48.818Z,100.00
2023-04-22T22:20:19.964Z,100.00
2023-04-22T22:22:47.868Z,100.00
2023-04-22T22:25:17.321Z,100.00
2023-04-22T22:27:47.087Z,100.00
2023-04-22T22:30:15.348Z,100.00
2023-04-22T22:32:43.119Z,100.00
2023-04-22T22:35:11.420Z,100.00
2023-04-22T22:37:39.061Z,100.00
2023-04-22T22:40:08.592Z,100.00
2023-04-22T22:42:37.591Z,100.00
2023-04-22T22:45:06.700Z,100.00
2023-04-22T22:47:34.569Z,100.00
2023-04-22T22:50:02.393Z,100.00
2023-04-22T22:52:30.405Z,100.00
2023-04-22T22:54:58.032Z,100.00
2023-04-22T22:57:26.154Z,100.00
2023-04-22T22:59:55.491Z,100.00
2023-04-22T23:02:23.237Z,100.00
2023-04-22T23:04:51.232Z,100.00
2023-04-22T23:07:18.949Z,100.00
2023-04-22T23:09:46.637Z,100.00
2023-04-22T23:12:14.275Z,100.00
2023-04-22T23:14:42.348Z,100.00
2023-04-22T23:17:11.832Z,100.00
2023-04-22T23:19:42.225Z,100.00
2023-04-22T23:22:11.473Z,100.00
2023-04-22T23:24:40.039Z,100.00
2023-04-22T23:27:08.215Z,100.00
2023-04-22T23:29:36.764Z,100.00
2023-04-22T23:32:05.948Z,100.00
2023-04-22T23:34:36.214Z,100.00
2023-04-22T23:37:06.368Z,100.00
2023-04-22T23:39:34.095Z,100.00
2023-04-22T23:42:02.518Z,100.00
2023-04-22T23:44:30.174Z,100.00
2023-04-22T23:46:58.081Z,100.00
2023-04-22T23:49:25.839Z,100.00
2023-04-22T23:51:55.651Z,100.00
2023-04-22T23:54:23.852Z,100.00
2023-04-22T23:56:52.444Z,100.00
2023-04-22T23:59:20.675Z,100.00
